createdAt,value
2018-04-17T00:00:01.952Z,29.40
2018-04-17T00:02:29.888Z,29.37
2018-04-17T00:04:56.312Z,32.73
2018-04-17T00:07:23.492Z,26.83
2018-04-17T00:09:50.088Z,29.53
2018-04-17T00:12:16.499Z,32.53
2018-04-17T00:14:42.927Z,28.30
2018-04-17T00:17:09.416Z,29.13
2018-04-17T00:19:37.186Z,29.37
2018-04-17T00:22:03.615Z,30.97
2018-04-17T00:24:30.063Z,29.40
2018-04-17T00:26:56.456Z,27.47
2018-04-17T00:29:23.524Z,31.43
2018-04-17T00:31:50.663Z,32.17
2018-04-17T00:34:17.835Z,30.70
2018-04-17T00:36:44.242Z,33.07
2018-04-17T00:39:11.450Z,31.60
2018-04-17T00:41:37.935Z,27.90
2018-04-17T00:44:04.750Z,27.33
2018-04-17T00:46:32.120Z,29.60
2018-04-17T00:48:59.267Z,29.50
2018-04-17T00:51:26.432Z,29.17
2018-04-17T00:53:52.971Z,24.67
2018-04-17T00:56:20.113Z,30.67
2018-04-17T00:58:47.260Z,30.47
2018-04-17T01:01:13.679Z,30.43
2018-04-17T01:03:40.087Z,29.57
2018-04-17T01:06:06.486Z,27.93
2018-04-17T01:08:32.943Z,26.83
2018-04-17T01:10:59.350Z,27.87
2018-04-17T01:13:25.798Z,29.30
2018-04-17T01:15:52.203Z,32.63
2018-04-17T01:18:18.617Z,29.73
2018-04-17T01:20:45.082Z,29.73
2018-04-17T01:23:11.469Z,29.60
2018-04-17T01:25:37.858Z,33.30
2018-04-17T01:28:04.251Z,34.67
2018-04-17T01:30:30.642Z,33.03
2018-04-17T01:32:57.024Z,35.93
2018-04-17T01:35:24.190Z,35.70
2018-04-17T01:37:50.579Z,33.33
2018-04-17T01:40:16.955Z,35.90
2018-04-17T01:42:43.417Z,31.47
2018-04-17T01:45:09.803Z,32.47
2018-04-17T01:47:36.935Z,32.23
2018-04-17T01:50:03.337Z,32.90
2018-04-17T01:52:29.736Z,36.43
2018-04-17T01:54:56.125Z,39.97
2018-04-17T01:57:22.534Z,39.03
2018-04-17T01:59:48.965Z,41.07
2018-04-17T02:02:15.379Z,37.10
2018-04-17T02:04:41.783Z,36.40
2018-04-17T02:07:08.924Z,39.60
2018-04-17T02:09:36.126Z,43.87
2018-04-17T02:12:02.543Z,43.10
2018-04-17T02:14:28.936Z,45.53
2018-04-17T02:16:56.066Z,43.43
2018-04-17T02:19:22.474Z,45.63
2018-04-17T02:21:48.889Z,40.43
2018-04-17T02:24:15.291Z,46.27
2018-04-17T02:26:42.422Z,44.20
2018-04-17T02:29:08.798Z,39.10
2018-04-17T02:31:35.192Z,36.33
2018-04-17T02:34:01.597Z,42.03
2018-04-17T02:36:28.069Z,41.93
2018-04-17T02:38:55.197Z,39.90
2018-04-17T02:41:23.093Z,38.10
2018-04-17T02:43:50.963Z,37.43
2018-04-17T02:46:18.167Z,41.83
2018-04-17T02:48:44.554Z,40.70
2018-04-17T02:51:10.942Z,53.80
2018-04-17T02:53:37.329Z,39.03
2018-04-17T02:56:03.734Z,37.10
2018-04-17T02:58:30.846Z,39.83
2018-04-17T03:00:57.241Z,42.47
2018-04-17T03:03:23.627Z,42.30
2018-04-17T03:05:50.015Z,41.33
2018-04-17T03:08:16.432Z,37.43
2018-04-17T03:10:42.823Z,36.30
2018-04-17T03:13:09.216Z,37.27
2018-04-17T03:15:35.632Z,38.90
2018-04-17T03:18:02.028Z,35.37
2018-04-17T03:20:28.428Z,34.53
2018-04-17T03:22:54.840Z,34.40
2018-04-17T03:25:21.302Z,35.50
2018-04-17T03:27:47.741Z,56.27
2018-04-17T03:30:14.140Z,38.97
2018-04-17T03:32:40.538Z,38.23
2018-04-17T03:35:07.706Z,39.30
2018-04-17T03:37:34.130Z,41.40
2018-04-17T03:40:01.301Z,45.67
2018-04-17T03:42:27.699Z,42.77
2018-04-17T03:44:54.850Z,48.97
2018-04-17T03:47:21.972Z,42.13
2018-04-17T03:49:48.422Z,49.47
2018-04-17T03:52:15.593Z,44.40
2018-04-17T03:54:42.800Z,47.33
2018-04-17T03:57:09.194Z,42.67
2018-04-17T03:59:35.592Z,45.13
2018-04-17T04:02:02.743Z,50.80
2018-04-17T04:04:29.879Z,53.60
2018-04-17T04:06:56.258Z,56.53
2018-04-17T04:09:22.644Z,53.43
2018-04-17T04:11:49.035Z,48.00
2018-04-17T04:14:15.424Z,55.60
2018-04-17T04:16:54.782Z,57.33
2018-04-17T04:19:33.469Z,59.37
2018-04-17T04:22:12.127Z,57.40
2018-04-17T04:24:50.890Z,56.13
2018-04-17T04:27:17.291Z,57.07
2018-04-17T04:29:43.709Z,58.27
2018-04-17T04:32:10.144Z,54.87
2018-04-17T04:34:36.542Z,59.23
2018-04-17T04:37:03.690Z,54.90
2018-04-17T04:39:30.079Z,55.90
2018-04-17T04:41:56.476Z,54.50
2018-04-17T04:44:23.598Z,53.83
2018-04-17T04:46:51.471Z,60.80
2018-04-17T04:49:18.679Z,57.77
2018-04-17T04:51:45.068Z,57.23
2018-04-17T04:54:12.207Z,55.40
2018-04-17T04:56:38.789Z,58.80
2018-04-17T04:59:05.190Z,61.17
2018-04-17T05:01:32.349Z,64.43
2018-04-17T05:03:58.767Z,65.47
2018-04-17T05:06:25.910Z,64.93
2018-04-17T05:08:52.304Z,65.73
2018-04-17T05:11:18.748Z,62.20
2018-04-17T05:13:45.168Z,62.07
2018-04-17T05:16:11.622Z,59.87
2018-04-17T05:18:38.044Z,61.60
2018-04-17T05:21:05.198Z,62.03
2018-04-17T05:23:31.616Z,60.50
2018-04-17T05:25:58.021Z,60.63
2018-04-17T05:28:24.453Z,62.30
2018-04-17T05:30:50.845Z,58.70
2018-04-17T05:33:17.260Z,66.67
2018-04-17T05:35:43.668Z,57.87
2018-04-17T05:38:10.066Z,51.70
2018-04-17T05:40:37.199Z,55.23
2018-04-17T05:43:03.597Z,48.90
2018-04-17T05:45:29.995Z,49.30
2018-04-17T05:47:56.410Z,45.10
2018-04-17T05:50:23.716Z,47.43
2018-04-17T05:52:50.132Z,40.93
2018-04-17T05:55:16.542Z,46.33
2018-04-17T05:57:43.040Z,32.30
2018-04-17T06:00:10.937Z,39.83
2018-04-17T06:02:37.326Z,34.23
2018-04-17T06:05:03.728Z,27.70
2018-04-17T06:07:30.127Z,29.33
2018-04-17T06:09:57.268Z,32.77
2018-04-17T06:12:24.421Z,35.23
2018-04-17T06:14:51.542Z,29.30
2018-04-17T06:17:17.969Z,43.47
2018-04-17T06:19:44.363Z,22.70
2018-04-17T06:22:10.758Z,27.70
2018-04-17T06:24:37.161Z,30.87
2018-04-17T06:27:03.572Z,30.83
2018-04-17T06:29:29.962Z,22.23
2018-04-17T06:31:57.107Z,23.17
2018-04-17T06:34:23.524Z,20.27
2018-04-17T06:36:51.412Z,19.23
2018-04-17T06:39:18.591Z,21.50
2018-04-17T06:41:45.149Z,22.00
2018-04-17T06:44:11.459Z,25.00
2018-04-17T06:46:37.855Z,26.87
2018-04-17T06:49:04.238Z,21.70
2018-04-17T06:51:30.712Z,21.23
2018-04-17T06:53:57.901Z,22.10
2018-04-17T06:56:24.312Z,23.37
2018-04-17T06:58:50.772Z,17.67
2018-04-17T07:01:17.324Z,20.40
2018-04-17T07:03:43.740Z,20.33
2018-04-17T07:06:10.151Z,19.17
2018-04-17T07:08:37.295Z,20.07
2018-04-17T07:11:04.447Z,21.00
2018-04-17T07:13:31.594Z,18.50
2018-04-17T07:15:57.991Z,20.70
2018-04-17T07:18:24.394Z,36.13
2018-04-17T07:20:50.817Z,17.50
2018-04-17T07:23:17.206Z,19.00
2018-04-17T07:25:43.653Z,24.10
2018-04-17T07:28:10.092Z,19.47
2018-04-17T07:30:37.232Z,38.00
2018-04-17T07:33:05.130Z,19.47
2018-04-17T07:35:31.549Z,26.73
2018-04-17T07:37:58.780Z,20.37
2018-04-17T07:40:25.266Z,17.90
2018-04-17T07:42:53.094Z,18.67
2018-04-17T07:45:19.491Z,25.50
2018-04-17T07:47:55.716Z,21.60
2018-04-17T07:50:22.119Z,19.60
2018-04-17T07:52:48.517Z,24.03
2018-04-17T07:55:14.939Z,20.13
2018-04-17T07:57:41.452Z,30.33
2018-04-17T08:00:07.903Z,19.50
2018-04-17T08:02:34.352Z,23.90
2018-04-17T08:05:00.753Z,19.17
2018-04-17T08:07:27.151Z,17.80
2018-04-17T08:09:53.616Z,16.60
2018-04-17T08:12:20.217Z,17.47
2018-04-17T08:14:46.590Z,22.30
2018-04-17T08:17:12.986Z,20.63
2018-04-17T08:19:40.106Z,19.60
2018-04-17T08:22:06.497Z,20.13
2018-04-17T08:24:32.900Z,22.53
2018-04-17T08:26:59.314Z,18.27
2018-04-17T08:29:25.713Z,19.47
2018-04-17T08:31:52.130Z,19.90
2018-04-17T08:34:18.538Z,16.47
2018-04-17T08:36:45.843Z,19.60
2018-04-17T08:39:12.236Z,18.50
2018-04-17T08:41:39.373Z,28.63
2018-04-17T08:44:06.508Z,16.80
2018-04-17T08:46:32.912Z,17.40
2018-04-17T08:48:59.387Z,19.83
2018-04-17T08:51:25.771Z,17.90
2018-04-17T08:53:52.192Z,21.83
2018-04-17T08:56:18.616Z,33.53
2018-04-17T08:58:45.027Z,27.00
2018-04-17T09:01:12.160Z,20.07
2018-04-17T09:03:38.566Z,17.33
2018-04-17T09:06:05.082Z,16.90
2018-04-17T09:08:31.496Z,20.27
2018-04-17T09:10:57.965Z,17.33
2018-04-17T09:13:25.182Z,18.03
2018-04-17T09:15:51.566Z,18.20
2018-04-17T09:18:17.977Z,19.20
2018-04-17T09:20:44.395Z,19.30
2018-04-17T09:23:10.933Z,19.13
2018-04-17T09:25:37.503Z,18.63
2018-04-17T09:28:04.829Z,17.93
2018-04-17T09:30:32.864Z,13.77
2018-04-17T09:32:59.327Z,23.80
2018-04-17T09:35:25.772Z,20.40
2018-04-17T09:37:52.204Z,14.63
2018-04-17T09:40:18.682Z,17.23
2018-04-17T09:42:45.913Z,22.73
2018-04-17T09:45:14.043Z,13.77
2018-04-17T09:47:40.502Z,15.53
2018-04-17T09:50:06.904Z,12.33
2018-04-17T09:52:33.435Z,15.90
2018-04-17T09:54:59.875Z,14.53
2018-04-17T09:57:26.349Z,18.23
2018-04-17T09:59:52.823Z,14.50
2018-04-17T10:02:19.356Z,18.87
2018-04-17T10:04:45.819Z,19.40
2018-04-17T10:07:12.274Z,17.30
2018-04-17T10:09:40.504Z,17.70
2018-04-17T10:12:07.192Z,21.30
2018-04-17T10:14:33.895Z,17.67
2018-04-17T10:17:00.340Z,12.37
2018-04-17T10:19:26.816Z,15.67
2018-04-17T10:21:54.024Z,19.90
2018-04-17T10:24:21.444Z,17.53
2018-04-17T10:26:47.977Z,18.30
2018-04-17T10:29:15.426Z,15.50
2018-04-17T10:31:41.902Z,17.73
2018-04-17T10:34:09.454Z,13.23
2018-04-17T10:36:35.974Z,13.60
2018-04-17T10:39:03.147Z,15.07
2018-04-17T10:41:31.661Z,11.80
2018-04-17T10:43:58.150Z,15.63
2018-04-17T10:46:24.578Z,15.73
2018-04-17T10:48:51.722Z,14.53
2018-04-17T10:51:18.936Z,11.47
2018-04-17T10:53:46.183Z,14.10
2018-04-17T10:56:13.551Z,10.70
2018-04-17T10:58:40.361Z,14.00
2018-04-17T11:01:07.337Z,11.97
2018-04-17T11:03:34.503Z,9.80
2018-04-17T11:06:02.991Z,8.37
2018-04-17T11:08:30.119Z,13.80
2018-04-17T11:10:56.502Z,9.27
2018-04-17T11:13:23.769Z,19.70
2018-04-17T11:15:50.233Z,10.83
2018-04-17T11:18:16.826Z,10.13
2018-04-17T11:20:43.231Z,9.70
2018-04-17T11:23:09.732Z,8.07
2018-04-17T11:25:36.153Z,8.73
2018-04-17T11:28:02.656Z,23.33
2018-04-17T11:30:44.080Z,10.60
2018-04-17T11:33:10.481Z,10.40
2018-04-17T11:35:37.632Z,10.80
2018-04-17T11:38:04.122Z,16.07
2018-04-17T11:40:30.566Z,12.43
2018-04-17T11:42:57.171Z,10.87
2018-04-17T11:45:23.839Z,11.63
2018-04-17T11:47:50.903Z,6.87
2018-04-17T11:50:19.503Z,9.63
2018-04-17T11:52:46.012Z,9.10
2018-04-17T11:55:12.488Z,7.90
2018-04-17T11:57:38.965Z,13.13
2018-04-17T12:00:06.255Z,9.77
2018-04-17T12:02:32.721Z,9.87
2018-04-17T12:04:59.196Z,10.87
2018-04-17T12:07:26.915Z,9.30
2018-04-17T12:09:53.370Z,9.00
2018-04-17T12:12:19.910Z,9.17
2018-04-17T12:14:46.408Z,12.93
2018-04-17T12:17:12.916Z,8.90
2018-04-17T12:19:40.140Z,16.77
2018-04-17T12:22:07.357Z,9.60
2018-04-17T12:24:34.559Z,13.50
2018-04-17T12:27:01.832Z,12.03
2018-04-17T12:29:28.352Z,14.20
2018-04-17T12:31:55.554Z,15.67
2018-04-17T12:34:22.007Z,10.30
2018-04-17T12:36:48.481Z,11.30
2018-04-17T12:39:14.916Z,8.50
2018-04-17T12:41:41.326Z,11.50
2018-04-17T12:44:08.223Z,32.43
2018-04-17T12:46:34.739Z,9.07
2018-04-17T12:49:01.991Z,9.97
2018-04-17T12:51:28.449Z,10.23
2018-04-17T12:53:54.954Z,12.03
2018-04-17T12:56:22.272Z,8.10
2018-04-17T12:58:50.209Z,11.03
2018-04-17T13:01:16.740Z,9.47
2018-04-17T13:03:44.152Z,8.00
2018-04-17T13:06:11.320Z,10.33
2018-04-17T13:08:39.550Z,13.00
2018-04-17T13:11:07.835Z,15.83
2018-04-17T13:13:34.315Z,10.87
2018-04-17T13:16:01.600Z,7.23
2018-04-17T13:18:28.065Z,5.90
2018-04-17T13:20:55.308Z,6.30
2018-04-17T13:23:22.651Z,10.40
2018-04-17T13:25:49.107Z,8.30
2018-04-17T13:28:16.433Z,10.13
2018-04-17T13:30:42.887Z,6.37
2018-04-17T13:33:09.358Z,9.60
2018-04-17T13:35:35.755Z,7.70
2018-04-17T13:38:02.243Z,9.73
2018-04-17T13:40:28.664Z,19.60
2018-04-17T13:42:55.115Z,8.77
2018-04-17T13:45:22.374Z,7.50
2018-04-17T13:47:49.518Z,6.80
2018-04-17T13:50:16.071Z,12.50
2018-04-17T13:52:42.511Z,18.50
2018-04-17T13:55:08.905Z,9.37
2018-04-17T13:57:36.886Z,8.20
2018-04-17T14:00:04.254Z,9.23
2018-04-17T14:02:30.712Z,9.67
2018-04-17T14:04:57.117Z,9.60
2018-04-17T14:07:23.574Z,13.80
2018-04-17T14:09:50.787Z,11.47
2018-04-17T14:12:17.216Z,14.63
2018-04-17T14:14:43.740Z,13.00
2018-04-17T14:17:10.230Z,12.50
2018-04-17T14:19:36.617Z,14.23
2018-04-17T14:22:03.065Z,10.67
2018-04-17T14:24:29.475Z,14.97
2018-04-17T14:26:55.916Z,12.40
2018-04-17T14:29:22.350Z,10.67
2018-04-17T14:31:48.753Z,22.97
2018-04-17T14:34:15.897Z,14.23
2018-04-17T14:36:42.426Z,10.17
2018-04-17T14:39:08.848Z,52.33
2018-04-17T14:41:35.289Z,33.67
2018-04-17T14:44:01.705Z,35.30
2018-04-17T14:46:28.114Z,14.33
2018-04-17T14:48:54.508Z,19.00
2018-04-17T14:51:21.689Z,15.90
2018-04-17T14:53:48.897Z,15.87
2018-04-17T14:56:16.078Z,14.07
2018-04-17T14:58:42.530Z,12.47
2018-04-17T15:01:08.973Z,13.77
2018-04-17T15:03:35.489Z,14.93
2018-04-17T15:06:02.563Z,17.17
2018-04-17T15:08:29.809Z,43.27
2018-04-17T15:10:57.019Z,24.23
2018-04-17T15:13:24.167Z,15.00
2018-04-17T15:15:51.328Z,27.47
2018-04-17T15:18:19.441Z,11.40
2018-04-17T15:20:46.341Z,20.57
2018-04-17T15:23:13.050Z,14.03
2018-04-17T15:25:39.675Z,13.37
2018-04-17T15:28:07.026Z,11.93
2018-04-17T15:30:34.226Z,12.00
2018-04-17T15:33:01.400Z,9.30
2018-04-17T15:35:27.839Z,13.00
2018-04-17T15:37:54.307Z,10.77
2018-04-17T15:40:20.752Z,13.47
2018-04-17T15:42:47.752Z,8.20
2018-04-17T15:45:14.165Z,11.33
2018-04-17T15:47:40.617Z,9.40
2018-04-17T15:50:07.048Z,11.00
2018-04-17T15:52:33.480Z,8.80
2018-04-17T15:54:59.891Z,13.87
2018-04-17T15:57:27.070Z,8.40
2018-04-17T15:59:53.487Z,11.37
2018-04-17T16:02:19.876Z,19.63
2018-04-17T16:04:46.281Z,8.10
2018-04-17T16:07:12.702Z,14.17
2018-04-17T16:09:39.120Z,10.63
2018-04-17T16:12:05.558Z,14.07
2018-04-17T16:14:31.989Z,18.30
2018-04-17T16:16:58.440Z,15.87
2018-04-17T16:19:24.877Z,15.77
2018-04-17T16:21:51.287Z,19.70
2018-04-17T16:24:17.673Z,15.53
2018-04-17T16:26:44.066Z,21.63
2018-04-17T16:29:10.463Z,15.83
2018-04-17T16:31:37.576Z,13.80
2018-04-17T16:34:03.994Z,20.23
2018-04-17T16:36:30.404Z,14.10
2018-04-17T16:38:56.874Z,17.80
2018-04-17T16:41:23.365Z,16.73
2018-04-17T16:43:49.805Z,15.33
2018-04-17T16:46:16.230Z,16.20
2018-04-17T16:48:42.651Z,18.00
2018-04-17T16:51:09.809Z,15.97
2018-04-17T16:53:36.217Z,17.93
2018-04-17T16:56:02.647Z,13.50
2018-04-17T16:58:29.794Z,15.30
2018-04-17T17:00:56.188Z,16.00
2018-04-17T17:03:22.590Z,20.23
2018-04-17T17:05:49.739Z,17.50
2018-04-17T17:08:16.122Z,19.47
2018-04-17T17:10:42.562Z,19.33
2018-04-17T17:13:10.457Z,14.67
2018-04-17T17:15:37.636Z,18.80
2018-04-17T17:18:04.044Z,13.50
2018-04-17T17:20:31.215Z,15.53
2018-04-17T17:22:57.654Z,21.50
2018-04-17T17:25:24.078Z,18.60
2018-04-17T17:27:50.494Z,14.83
2018-04-17T17:30:17.676Z,14.03
2018-04-17T17:32:44.081Z,14.90
2018-04-17T17:35:10.532Z,15.97
2018-04-17T17:37:36.944Z,21.80
2018-04-17T17:40:04.170Z,16.47
2018-04-17T17:42:30.628Z,16.40
2018-04-17T17:44:57.774Z,21.63
2018-04-17T17:47:24.928Z,14.27
2018-04-17T17:49:52.093Z,28.33
2018-04-17T17:52:18.488Z,20.20
2018-04-17T17:54:44.882Z,21.13
2018-04-17T17:57:11.342Z,16.70
2018-04-17T17:59:37.746Z,17.57
2018-04-17T18:02:04.171Z,16.17
2018-04-17T18:04:30.561Z,19.77
2018-04-17T18:06:57.700Z,15.17
2018-04-17T18:09:24.109Z,20.13
2018-04-17T18:11:50.511Z,27.43
2018-04-17T18:14:16.936Z,23.27
2018-04-17T18:16:43.328Z,25.07
2018-04-17T18:19:09.780Z,36.43
2018-04-17T18:21:36.940Z,23.47
2018-04-17T18:24:04.129Z,19.90
2018-04-17T18:26:30.851Z,27.20
2018-04-17T18:28:57.258Z,14.80
2018-04-17T18:31:24.403Z,15.23
2018-04-17T18:33:51.555Z,15.10
2018-04-17T18:36:18.716Z,17.40
2018-04-17T18:38:45.851Z,16.80
2018-04-17T18:41:12.997Z,18.70
2018-04-17T18:43:39.408Z,15.97
2018-04-17T18:46:05.861Z,15.23
2018-04-17T18:48:32.283Z,15.67
2018-04-17T18:50:58.715Z,15.83
2018-04-17T18:53:26.123Z,18.13
2018-04-17T18:55:52.558Z,19.30
2018-04-17T18:58:18.953Z,19.93
2018-04-17T19:00:45.412Z,16.10
2018-04-17T19:03:11.788Z,15.33
2018-04-17T19:05:38.208Z,16.57
2018-04-17T19:08:04.609Z,21.70
2018-04-17T19:10:31.047Z,24.10
2018-04-17T19:12:57.452Z,26.90
2018-04-17T19:15:23.849Z,22.10
2018-04-17T19:17:50.348Z,25.63
2018-04-17T19:20:16.756Z,27.03
2018-04-17T19:22:43.928Z,22.13
2018-04-17T19:25:10.361Z,26.80
2018-04-17T19:27:36.765Z,29.53
2018-04-17T19:30:03.944Z,27.17
2018-04-17T19:32:30.362Z,30.07
2018-04-17T19:34:57.265Z,27.70
2018-04-17T19:37:23.679Z,21.20
2018-04-17T19:39:50.084Z,31.10
2018-04-17T19:42:16.516Z,28.50
2018-04-17T19:44:43.681Z,24.63
2018-04-17T19:47:10.091Z,27.13
2018-04-17T19:49:37.236Z,26.97
2018-04-17T19:52:04.387Z,26.00
2018-04-17T19:54:31.559Z,32.40
2018-04-17T19:56:57.969Z,31.03
2018-04-17T19:59:24.420Z,28.50
2018-04-17T20:01:52.185Z,29.00
2018-04-17T20:04:18.691Z,30.73
2018-04-17T20:06:45.854Z,22.40
2018-04-17T20:09:12.978Z,36.63
2018-04-17T20:11:40.866Z,29.43
2018-04-17T20:14:07.999Z,26.73
2018-04-17T20:16:34.407Z,35.50
2018-04-17T20:19:00.849Z,38.00
2018-04-17T20:21:27.202Z,28.67
2018-04-17T20:23:53.599Z,28.13
2018-04-17T20:26:19.996Z,26.47
2018-04-17T20:28:46.443Z,29.63
2018-04-17T20:31:12.836Z,22.53
2018-04-17T20:33:40.006Z,27.63
2018-04-17T20:36:06.407Z,31.40
2018-04-17T20:38:32.810Z,26.17
2018-04-17T20:40:59.279Z,34.20
2018-04-17T20:43:25.720Z,36.83
2018-04-17T20:45:52.872Z,36.17
2018-04-17T20:48:20.052Z,31.73
2018-04-17T20:50:46.518Z,31.90
2018-04-17T20:53:12.956Z,29.70
2018-04-17T20:55:39.400Z,31.63
2018-04-17T20:58:05.854Z,23.20
2018-04-17T21:00:33.076Z,23.53
2018-04-17T21:02:59.496Z,29.00
2018-04-17T21:05:25.946Z,26.03
2018-04-17T21:07:52.384Z,32.43
2018-04-17T21:10:18.804Z,31.17
2018-04-17T21:12:45.402Z,28.40
2018-04-17T21:15:11.846Z,36.90
2018-04-17T21:17:38.271Z,31.07
2018-04-17T21:20:04.711Z,37.23
2018-04-17T21:22:31.146Z,40.57
2018-04-17T21:24:57.565Z,32.27
2018-04-17T21:27:24.030Z,32.17
2018-04-17T21:29:50.434Z,26.03
2018-04-17T21:32:16.873Z,33.77
2018-04-17T21:34:43.266Z,31.00
2018-04-17T21:37:09.666Z,32.60
2018-04-17T21:39:36.176Z,30.00
2018-04-17T21:42:02.600Z,36.17
2018-04-17T21:44:28.998Z,28.17
2018-04-17T21:46:55.377Z,30.27
2018-04-17T21:49:21.792Z,23.23
2018-04-17T21:51:48.175Z,24.33
2018-04-17T21:54:14.599Z,32.33
2018-04-17T21:56:41.000Z,26.73
2018-04-17T21:59:07.422Z,25.43
2018-04-17T22:01:33.818Z,23.93
2018-04-17T22:04:01.695Z,25.30
2018-04-17T22:06:28.838Z,30.60
2018-04-17T22:08:56.723Z,33.30
2018-04-17T22:11:23.956Z,23.83
2018-04-17T22:13:50.397Z,31.07
2018-04-17T22:16:16.793Z,31.47
2018-04-17T22:18:43.213Z,32.00
2018-04-17T22:21:09.632Z,34.27
2018-04-17T22:23:36.060Z,25.20
2018-04-17T22:26:02.517Z,26.57
2018-04-17T22:28:28.905Z,28.03
2018-04-17T22:30:56.062Z,27.03
2018-04-17T22:33:22.495Z,24.60
2018-04-17T22:35:49.626Z,24.83
2018-04-17T22:38:16.787Z,25.40
2018-04-17T22:40:43.959Z,22.17
2018-04-17T22:43:10.389Z,23.27
2018-04-17T22:45:37.551Z,20.70
2018-04-17T22:48:04.770Z,23.40
2018-04-17T22:50:31.946Z,25.00
2018-04-17T22:52:58.388Z,20.50
2018-04-17T22:55:24.814Z,22.43
2018-04-17T22:57:51.254Z,20.97
2018-04-17T23:00:17.705Z,21.33
2018-04-17T23:02:44.095Z,24.60
2018-04-17T23:05:11.241Z,22.63
2018-04-17T23:07:37.633Z,21.20
2018-04-17T23:10:04.028Z,23.00
2018-04-17T23:12:30.417Z,25.33
2018-04-17T23:14:56.797Z,25.20
2018-04-17T23:17:23.238Z,22.20
2018-04-17T23:19:49.649Z,22.80
2018-04-17T23:22:16.031Z,24.50
2018-04-17T23:24:42.473Z,21.33
2018-04-17T23:27:10.361Z,27.63
2018-04-17T23:29:37.501Z,31.23
2018-04-17T23:32:04.661Z,26.80
2018-04-17T23:34:31.800Z,25.17
2018-04-17T23:36:58.927Z,31.47
2018-04-17T23:39:25.334Z,26.70
2018-04-17T23:41:51.730Z,24.40
2018-04-17T23:44:18.870Z,24.73
2018-04-17T23:46:46.075Z,29.43
2018-04-17T23:49:12.473Z,26.07
2018-04-17T23:51:38.869Z,25.13
2018-04-17T23:54:05.265Z,27.90
2018-04-17T23:56:31.670Z,27.43
2018-04-17T23:58:58.067Z,26.20
